Wichita, KS

15:03 CDT le 30 Mars 2015 (GMT -0500)
Wichita Mid-Continent | | Change Station
CLOSE
Current Station
Aéroport
Location: Wichita,
Altitude: 1332 ft
Stations météo à proximité

Alt. 1332 ft 37.65 °N, 97.43 °W | Updated 10 minutes ago

Partly Cloudy
Partiellement nuageux
74 ° F
Paraît 74 ° F
N
16
Vent Variable Vent de SSO
Gusts 29 mph

Aujourd'hui
Haut(e) -- | Bas -- ° F
--% Risque de précip.
Hier
Haut(e) -- | Bas -- ° F
Precip. -- pouce
7:18 AM 7:50 PM
Lune gibbeuse croissante, 81% visible
Pression 30.05 pouce
Visibilité 10.0 Miles terrestres
Nuages Peu 20000 ft
Point de rosée 38 ° F
Humidité 27%
Précipitations 0.00 pouce
Profondeur de la couche neigeuse Non disponible.
UV 7 sur 12
Pollen 11.80 sur 12
Qualité de l'air Non disponible.
Flu Activity Non disponible.
METAR KICT 301953Z 20014G25KT 10SM FEW200 23/03 A3005 RMK AO2 SLP174 T02330033

More Conditions Fewer Conditions

Pression 30.05 pouce
Visibilité 10.0 Miles terrestres
Nuages Peu 20000 ft
Point de rosée 38 ° F
Humidité 27%
Précipitations 0.00 pouce
Profondeur de la couche neigeuse Non disponible.
UV 7 sur 12
Pollen 11.80 sur 12
Qualité de l'air Non disponible.
Flu Activity Non disponible.
METAR KICT 301953Z 20014G25KT 10SM FEW200 23/03 A3005 RMK AO2 SLP174 T02330033

More Conditions Fewer Conditions

10-Day Weather Forecast

Almanac

Astronomie

Mar. 30, 2015 Lever Coucher
Temps réel
Crépuscule civil
Crépuscule nautique
Crépuscule astronomique
Lune
Durée de lumière visible
Longueur du jour
Tomorrow will be .
, % of the Moon is Illuminated

Extrêmes aujourd'hui

State Highs State Lows

Community

WunderPhotos

Upload Photos

1,809,578 Photos téléchargées !

WunderBlogs® & News

Nearby

Qualité de l'air

  Qualité de l'air Indice de la qualité de l'air Polluant
Not available.

Épaisseur de neige

Station Depth Altitude

Activité sismique

Ville Distance Mag. Time & Date
Minimum magnitude displayed is 2.5.

Températures des eaux côtières

Lieu Température

Stations

Stations météo à proximité

Emplacement de la station Température Refroidissement éolien Point de rosée Humidité Vent Precip. Alt. Mise à jour Type